weather.gov     
National Weather Service

Terminal Aerodrome Forecast
NWS Homepage
This page is being discontinued on March 12, 2014.
The same data is available at this site. Please update your bookmarks.
Thank you, and we apologize for the inconvenience.
Please send an email to SR-SRH.Webmaster@noaa.gov with any concerns.


Current Version
Previous Version:    01  02  03  04  05  06  07  08  09  10  11  12  13  14  
[Printable]
562
FTUS41 KBOX 262110 AAA
TAFBOS
TAF AMD
KBOS 262110Z 2621/2724 05015G25KT 6SM -SN OVC020
     FM270000 04018G28KT 1SM -SN BR OVC012
     FM270300 04023G36KT 1/2SM SN FG OVC003
     FM270700 03027G47KT 1/4SM +SN BLSN OVC003 WS020/03055KT
     FM271800 01032G53KT 1/2SM SN BLSN OVC003 WS020/03055KT=




562
FTUS41 KBOX 262110 AAA
TAFBOS
TAF AMD
KBOS 262110Z 2621/2724 05015G25KT 6SM -SN OVC020
     FM270000 04018G28KT 1SM -SN BR OVC012
     FM270300 04023G36KT 1/2SM SN FG OVC003
     FM270700 03027G47KT 1/4SM +SN BLSN OVC003 WS020/03055KT
     FM271800 01032G53KT 1/2SM SN BLSN OVC003 WS020/03055KT=


U.S. Dept. of Commerce
NOAA National Weather Service
1325 East West Highway
Silver Spring, MD 20910
E-mail: w-nws.webmaster@noaa.gov
Page last modified: May 16, 2007
NATIONAL WEATHER SERVICE: for Safety, for Work, for Fun - FOR LIFE